Camellia — VRCP9 — position and weather

sailwx.info

Track history (hours):
 
Tides and Currents Weather Stations Pressure Air Temp Water Temp Dewpoint Dewpoint Depression Visibility Wind Speed Wind Dir Waves Ship Positions

Camellia

Last reported at 2016-May-30 04:23 UTC. Time now 2016-May-30 05:01 UTC.
Position N 49°28' W 004°14'.

Length 222 m; draft 10.1 m.

Type: Ship (hazmat cat C). MMSI: 477791900.

Date/timePositionNaut miles runAvg speedWind from/ knotsBaromVisibWave heightAir tempDewpointWater temp
2016-May-30 04:23N 49°28' W 004°14'1821.5
2016-May-30 03:32N 49°38' W 003°50'2020.8
2016-May-30 02:34N 49°48' W 003°22'2019.8
2016-May-30 01:33N 49°57' W 002°55'5818.2
2016-May-29 22:20N 50°02' W 001°24'1721.3
2016-May-29 21:33N 49°52' W 001°03'2121.5
2016-May-29 20:34N 49°41' W 000°35'2020.3
2016-May-29 19:34N 49°31' W 000°07'1211.4
2016-May-29 18:32N 49°27' E 000°10'0 0.0
2016-May-29 17:32N 49°27' E 000°10'0 0.0
2016-May-29 16:32N 49°27' E 000°10'0 0.0
2016-May-29 15:32N 49°27' E 000°10'0 0.0
2016-May-29 14:32N 49°27' E 000°10'0 0.0
2016-May-29 13:32N 49°27' E 000°10'0 0.0
2016-May-29 12:32N 49°27' E 000°10'0 0.0
2016-May-29 11:32N 49°27' E 000°10'0 0.0
2016-May-29 10:32N 49°27' E 000°10'0 0.0
2016-May-29 09:32N 49°27' E 000°10'0 0.0
2016-May-29 08:17N 49°27' E 000°10'0 0.0
2016-May-29 07:31N 49°28' E 000°10'0 0.0
2016-May-29 06:31N 49°27' E 000°10'0 0.0
2016-May-29 05:31N 49°27' E 000°10'0 0.0
2016-May-29 04:31N 49°27' E 000°10'0 0.0
2016-May-29 03:31N 49°27' E 000°10'0 0.0
2016-May-29 02:31N 49°27' E 000°10'0 0.0
2016-May-29 01:31N 49°27' E 000°10'0 0.0
2016-May-29 00:31N 49°27' E 000°10'0 0.0
2016-May-28 23:31N 49°27' E 000°10'0 0.0
2016-May-28 22:31N 49°27' E 000°10'0 0.0
2016-May-28 21:31N 49°27' E 000°10'0 0.0
2016-May-28 20:31N 49°27' E 000°10'0 0.0
2016-May-28 19:31N 49°27' E 000°10'0 0.0
2016-May-28 18:31N 49°27' E 000°10'0 0.0
2016-May-28 17:31N 49°27' E 000°10'0 0.0
2016-May-28 16:31N 49°27' E 000°10'0 0.0
2016-May-28 15:31N 49°27' E 000°10'0 0.0
2016-May-28 14:31N 49°27' E 000°10'0 0.0
2016-May-28 13:31N 49°27' E 000°10'0 0.0
2016-May-28 12:31N 49°27' E 000°10'0 0.0
2016-May-28 11:31N 49°27' E 000°10'0 0.0
2016-May-28 10:31N 49°27' E 000°10'0 0.0
2016-May-28 09:31N 49°27' E 000°10'0 0.0
2016-May-28 08:31N 49°27' E 000°10'0 0.0
2016-May-28 07:31N 49°27' E 000°10'0 0.0
2016-May-28 06:31N 49°27' E 000°10'0 0.0
2016-May-28 05:31N 49°27' E 000°10'0 0.0
2016-May-28 04:31N 49°27' E 000°10'0 0.0
2016-May-28 03:31N 49°27' E 000°10'0 0.0
2016-May-28 02:31N 49°27' E 000°10'0 0.0
2016-May-28 01:31N 49°27' E 000°10'0 0.0
2016-May-28 00:31N 49°27' E 000°10'0 0.0
2016-May-27 23:31N 49°27' E 000°10'0 0.0
2016-May-27 22:31N 49°27' E 000°10'2 1.7
2016-May-27 21:33N 49°28' E 000°07'1111.0
2016-May-27 20:33N 49°32' W 000°08'5 5.4
2016-May-27 19:32N 49°35' W 000°15'0 0.0
2016-May-27 18:32N 49°35' W 000°16'0 0.0
2016-May-27 17:32N 49°35' W 000°16'0 0.0
2016-May-27 16:32N 49°35' W 000°16'0 0.1
2016-May-27 15:32N 49°35' W 000°15'0 0.3
2016-May-27 14:33N 49°35' W 000°15'1110.9
2016-May-27 13:33N 49°28' W 000°01'1111.4
2016-May-27 12:33N 49°26' E 000°16'1010.2
2016-May-27 11:33N 49°29' E 000°30'6 6.3
2016-May-27 10:33N 49°28' E 000°40'10 4.6
2016-May-27 08:22N 49°29' E 000°56'8 8.3
2016-May-27 07:26N 49°21' E 000°59'0 0.0
2016-May-27 04:19N 49°21' E 000°59'0 0.0
2016-May-27 03:22N 49°21' E 000°59'0 0.0
2016-May-27 02:22N 49°21' E 000°59'0 0.0
2016-May-26 22:19N 49°21' E 000°59'0 0.0
2016-May-26 21:31N 49°21' E 000°59'0 0.0
2016-May-26 20:31N 49°21' E 000°59'8 1.4
2016-May-26 14:25N 49°27' E 000°49'6 5.6
2016-May-26 13:20N 49°28' E 000°40'5 6.7
2016-May-26 12:33N 49°28' E 000°32'1111.1
2016-May-26 11:33N 49°26' E 000°15'1211.7
2016-May-26 10:34N 49°29' W 000°02'5 4.7
2016-May-26 09:33N 49°33' W 000°05'4 3.9
2016-May-26 08:33N 49°37' W 000°05'1515.0
2016-May-26 07:33N 49°52' W 000°04'1717.0
2016-May-26 06:34N 50°09' W 000°04'1717.0
2016-May-26 05:34N 50°26' W 000°03'1312.7
2016-May-26 04:34N 50°32' E 000°14'1817.4
2016-May-26 03:33N 50°40' E 000°39'1716.2
2016-May-26 02:30N 50°50' E 001°00'1414.9
2016-May-26 01:34N 50°59' E 001°17'1515.3
2016-May-26 00:34N 51°09' E 001°36'1716.8
2016-May-25 23:34N 51°22' E 001°53'1818.2
2016-May-25 22:34N 51°36' E 002°11'4916.4
2016-May-25 19:33N 52°03' E 003°18'1616.3
2016-May-25 18:33N 52°03' E 003°44'1110.9
2016-May-25 17:33N 52°00' E 004°01'1110.5
2016-May-25 16:33N 51°54' E 004°16'7 6.6
2016-May-25 15:33N 51°54' E 004°26'0 0.4
2016-May-25 14:33N 51°54' E 004°26'0 0.0
2016-May-25 13:33N 51°54' E 004°26'0 0.0
2016-May-25 12:32N 51°53' E 004°26'0 0.0
2016-May-25 11:32N 51°54' E 004°26'0 0.0
2016-May-25 10:32N 51°53' E 004°26'0 0.0
2016-May-25 09:32N 51°54' E 004°26'0 0.0
2016-May-25 08:32N 51°54' E 004°26'0 0.0
2016-May-25 07:32N 51°53' E 004°26'0 0.0
2016-May-25 06:32N 51°54' E 004°26'1 1.4
2016-May-25 05:34N 51°54' E 004°24'7 6.9
2016-May-25 04:34N 51°56' E 004°13'1111.4
2016-May-25 03:34N 51°60' E 003°56'1110.6
2016-May-25 02:34N 51°58' E 003°39'1616.1
2016-May-25 01:33N 51°53' E 003°14'10 9.5
2016-May-25 00:27N 51°46' E 003°01'3 2.1
2016-May-24 23:13N 51°44' E 002°60'1014.4
2016-May-24 22:33N 51°36' E 002°50'1313.4
2016-May-24 21:33N 51°24' E 002°41'1110.9
2016-May-24 20:33N 51°25' E 002°59'9 8.5
2016-May-24 19:31N 51°21' E 003°11'0 0.0
2016-May-24 18:25N 51°21' E 003°11'0 0.0
2016-May-24 17:31N 51°21' E 003°11'0 0.0
2016-May-24 16:31N 51°21' E 003°11'0 0.0
2016-May-24 15:28N 51°21' E 003°11'0 0.0
2016-May-24 14:31N 51°21' E 003°11'0 0.0
2016-May-24 13:31N 51°21' E 003°11'1 0.6
2016-May-24 12:34N 51°21' E 003°12'3 3.3
2016-May-24 11:33N 51°24' E 003°08'9 8.6
2016-May-24 10:33N 51°22' E 002°54'1110.8
2016-May-24 09:34N 51°19' E 002°37'2 1.8
2016-May-24 08:34N 51°21' E 002°36'1010.1
2016-May-24 07:34N 51°19' E 002°20'1514.6
2016-May-24 06:33N 51°11' E 001°60'1212.4
2016-May-24 05:34N 51°03' E 001°45'1515.4
2016-May-24 04:33N 51°03' E 002°10'2 1.5
2016-May-24 03:09N 51°01' E 002°11'0 0.0
2016-May-24 02:27N 51°01' E 002°11'0 0.0
2016-May-24 01:27N 51°01' E 002°11'0 0.0
2016-May-24 00:21N 51°01' E 002°11'0 0.0
2016-May-23 23:29N 51°01' E 002°11'0 0.0
2016-May-23 22:29N 51°01' E 002°11'0 0.0
2016-May-23 21:29N 51°01' E 002°11'0 0.0
2016-May-23 20:32N 51°01' E 002°11'0 0.0
2016-May-23 19:29N 51°01' E 002°11'0 0.0
2016-May-23 18:29N 51°01' E 002°11'0 0.0
2016-May-23 14:32N 51°01' E 002°11'0 0.0
2016-May-23 13:17N 51°01' E 002°11'0 0.0
2016-May-23 12:29N 51°01' E 002°11'0 0.0
2016-May-23 11:23N 51°01' E 002°11'0 0.0
2016-May-23 10:26N 51°01' E 002°11'0 0.0
2016-May-23 09:29N 51°01' E 002°11'0 0.0
2016-May-23 08:29N 51°01' E 002°11'0 0.0
2016-May-23 07:26N 51°01' E 002°11'0 0.0
2016-May-23 06:26N 51°01' E 002°11'0 0.0
2016-May-23 05:32N 51°01' E 002°11'0 0.0
2016-May-23 04:32N 51°01' E 002°11'0 0.0
2016-May-23 03:26N 51°01' E 002°11'4 4.9
2016-May-23 02:33N 51°03' E 002°05'10 9.9
2016-May-23 01:33N 51°02' E 001°50'10 9.5
2016-May-23 00:33N 50°59' E 001°35'5518.2
2016-May-22 21:33N 50°23' E 000°30'2020.5
2016-May-22 20:33N 50°18' W 000°01'2020.2
2016-May-22 19:33N 50°12' W 000°31'2020.0
2016-May-22 18:33N 50°07' W 001°01'1918.9
2016-May-22 17:33N 50°03' W 001°30'5115.2
2016-May-22 14:11N 49°49' W 002°47'1514.6
2016-May-22 13:10N 49°46' W 003°09'915.0
2016-May-22 12:33N 49°43' W 003°23'1515.2
2016-May-22 11:33N 49°39' W 003°45'  
Track history (hours):
 
Tides and Currents Weather Stations Pressure Air Temp Water Temp Dewpoint Dewpoint Depression Visibility Wind Speed Wind Dir Waves Ship Positions

Camellia

Last reported at 2016-May-30 04:23 UTC. Time now 2016-May-30 05:01 UTC.
Position N 49°28' W 004°14'.

Length 222 m; draft 10.1 m.

Type: Ship (hazmat cat C). MMSI: 477791900.

Date/timePositionNaut miles runAvg speedWind from/ knotsBaromVisibWave heightAir tempDewpointWater temp
2016-May-30 04:23N 49°28' W 004°14'1821.5
2016-May-30 03:32N 49°38' W 003°50'2020.8
2016-May-30 02:34N 49°48' W 003°22'2019.8
2016-May-30 01:33N 49°57' W 002°55'5818.2
2016-May-29 22:20N 50°02' W 001°24'1721.3
2016-May-29 21:33N 49°52' W 001°03'2121.5
2016-May-29 20:34N 49°41' W 000°35'2020.3
2016-May-29 19:34N 49°31' W 000°07'1211.4
2016-May-29 18:32N 49°27' E 000°10'0 0.0
2016-May-29 17:32N 49°27' E 000°10'0 0.0
2016-May-29 16:32N 49°27' E 000°10'0 0.0
2016-May-29 15:32N 49°27' E 000°10'0 0.0
2016-May-29 14:32N 49°27' E 000°10'0 0.0
2016-May-29 13:32N 49°27' E 000°10'0 0.0
2016-May-29 12:32N 49°27' E 000°10'0 0.0
2016-May-29 11:32N 49°27' E 000°10'0 0.0
2016-May-29 10:32N 49°27' E 000°10'0 0.0
2016-May-29 09:32N 49°27' E 000°10'0 0.0
2016-May-29 08:17N 49°27' E 000°10'0 0.0
2016-May-29 07:31N 49°28' E 000°10'0 0.0
2016-May-29 06:31N 49°27' E 000°10'0 0.0
2016-May-29 05:31N 49°27' E 000°10'0 0.0
2016-May-29 04:31N 49°27' E 000°10'0 0.0
2016-May-29 03:31N 49°27' E 000°10'0 0.0
2016-May-29 02:31N 49°27' E 000°10'0 0.0
2016-May-29 01:31N 49°27' E 000°10'0 0.0
2016-May-29 00:31N 49°27' E 000°10'0 0.0
2016-May-28 23:31N 49°27' E 000°10'0 0.0
2016-May-28 22:31N 49°27' E 000°10'0 0.0
2016-May-28 21:31N 49°27' E 000°10'0 0.0
2016-May-28 20:31N 49°27' E 000°10'0 0.0
2016-May-28 19:31N 49°27' E 000°10'0 0.0
2016-May-28 18:31N 49°27' E 000°10'0 0.0
2016-May-28 17:31N 49°27' E 000°10'0 0.0
2016-May-28 16:31N 49°27' E 000°10'0 0.0
2016-May-28 15:31N 49°27' E 000°10'0 0.0
2016-May-28 14:31N 49°27' E 000°10'0 0.0
2016-May-28 13:31N 49°27' E 000°10'0 0.0
2016-May-28 12:31N 49°27' E 000°10'0 0.0
2016-May-28 11:31N 49°27' E 000°10'0 0.0
2016-May-28 10:31N 49°27' E 000°10'0 0.0
2016-May-28 09:31N 49°27' E 000°10'0 0.0
2016-May-28 08:31N 49°27' E 000°10'0 0.0
2016-May-28 07:31N 49°27' E 000°10'0 0.0
2016-May-28 06:31N 49°27' E 000°10'0 0.0
2016-May-28 05:31N 49°27' E 000°10'0 0.0
2016-May-28 04:31N 49°27' E 000°10'0 0.0
2016-May-28 03:31N 49°27' E 000°10'0 0.0
2016-May-28 02:31N 49°27' E 000°10'0 0.0
2016-May-28 01:31N 49°27' E 000°10'0 0.0
2016-May-28 00:31N 49°27' E 000°10'0 0.0
2016-May-27 23:31N 49°27' E 000°10'0 0.0
2016-May-27 22:31N 49°27' E 000°10'2 1.7
2016-May-27 21:33N 49°28' E 000°07'1111.0
2016-May-27 20:33N 49°32' W 000°08'5 5.4
2016-May-27 19:32N 49°35' W 000°15'0 0.0
2016-May-27 18:32N 49°35' W 000°16'0 0.0
2016-May-27 17:32N 49°35' W 000°16'0 0.0
2016-May-27 16:32N 49°35' W 000°16'0 0.1
2016-May-27 15:32N 49°35' W 000°15'0 0.3
2016-May-27 14:33N 49°35' W 000°15'1110.9
2016-May-27 13:33N 49°28' W 000°01'1111.4
2016-May-27 12:33N 49°26' E 000°16'1010.2
2016-May-27 11:33N 49°29' E 000°30'6 6.3
2016-May-27 10:33N 49°28' E 000°40'10 4.6
2016-May-27 08:22N 49°29' E 000°56'8 8.3
2016-May-27 07:26N 49°21' E 000°59'0 0.0
2016-May-27 04:19N 49°21' E 000°59'0 0.0
2016-May-27 03:22N 49°21' E 000°59'0 0.0
2016-May-27 02:22N 49°21' E 000°59'0 0.0
2016-May-26 22:19N 49°21' E 000°59'0 0.0
2016-May-26 21:31N 49°21' E 000°59'0 0.0
2016-May-26 20:31N 49°21' E 000°59'8 1.4
2016-May-26 14:25N 49°27' E 000°49'6 5.6
2016-May-26 13:20N 49°28' E 000°40'5 6.7
2016-May-26 12:33N 49°28' E 000°32'1111.1
2016-May-26 11:33N 49°26' E 000°15'1211.7
2016-May-26 10:34N 49°29' W 000°02'5 4.7
2016-May-26 09:33N 49°33' W 000°05'4 3.9
2016-May-26 08:33N 49°37' W 000°05'1515.0
2016-May-26 07:33N 49°52' W 000°04'1717.0
2016-May-26 06:34N 50°09' W 000°04'1717.0
2016-May-26 05:34N 50°26' W 000°03'1312.7
2016-May-26 04:34N 50°32' E 000°14'1817.4
2016-May-26 03:33N 50°40' E 000°39'1716.2
2016-May-26 02:30N 50°50' E 001°00'1414.9
2016-May-26 01:34N 50°59' E 001°17'1515.3
2016-May-26 00:34N 51°09' E 001°36'1716.8
2016-May-25 23:34N 51°22' E 001°53'1818.2
2016-May-25 22:34N 51°36' E 002°11'4916.4
2016-May-25 19:33N 52°03' E 003°18'1616.3
2016-May-25 18:33N 52°03' E 003°44'1110.9
2016-May-25 17:33N 52°00' E 004°01'1110.5
2016-May-25 16:33N 51°54' E 004°16'7 6.6
2016-May-25 15:33N 51°54' E 004°26'0 0.4
2016-May-25 14:33N 51°54' E 004°26'0 0.0
2016-May-25 13:33N 51°54' E 004°26'0 0.0
2016-May-25 12:32N 51°53' E 004°26'0 0.0
2016-May-25 11:32N 51°54' E 004°26'0 0.0
2016-May-25 10:32N 51°53' E 004°26'0 0.0
2016-May-25 09:32N 51°54' E 004°26'0 0.0
2016-May-25 08:32N 51°54' E 004°26'0 0.0
2016-May-25 07:32N 51°53' E 004°26'0 0.0
2016-May-25 06:32N 51°54' E 004°26'1 1.4
2016-May-25 05:34N 51°54' E 004°24'7 6.9
2016-May-25 04:34N 51°56' E 004°13'1111.4
2016-May-25 03:34N 51°60' E 003°56'1110.6
2016-May-25 02:34N 51°58' E 003°39'1616.1
2016-May-25 01:33N 51°53' E 003°14'10 9.5
2016-May-25 00:27N 51°46' E 003°01'3 2.1
2016-May-24 23:13N 51°44' E 002°60'1014.4
2016-May-24 22:33N 51°36' E 002°50'1313.4
2016-May-24 21:33N 51°24' E 002°41'1110.9
2016-May-24 20:33N 51°25' E 002°59'9 8.5
2016-May-24 19:31N 51°21' E 003°11'0 0.0
2016-May-24 18:25N 51°21' E 003°11'0 0.0
2016-May-24 17:31N 51°21' E 003°11'0 0.0
2016-May-24 16:31N 51°21' E 003°11'0 0.0
2016-May-24 15:28N 51°21' E 003°11'0 0.0
2016-May-24 14:31N 51°21' E 003°11'0 0.0
2016-May-24 13:31N 51°21' E 003°11'1 0.6
2016-May-24 12:34N 51°21' E 003°12'3 3.3
2016-May-24 11:33N 51°24' E 003°08'9 8.6
2016-May-24 10:33N 51°22' E 002°54'1110.8
2016-May-24 09:34N 51°19' E 002°37'2 1.8
2016-May-24 08:34N 51°21' E 002°36'1010.1
2016-May-24 07:34N 51°19' E 002°20'1514.6
2016-May-24 06:33N 51°11' E 001°60'1212.4
2016-May-24 05:34N 51°03' E 001°45'1515.4
2016-May-24 04:33N 51°03' E 002°10'2 1.5
2016-May-24 03:09N 51°01' E 002°11'0 0.0
2016-May-24 02:27N 51°01' E 002°11'0 0.0
2016-May-24 01:27N 51°01' E 002°11'0 0.0
2016-May-24 00:21N 51°01' E 002°11'0 0.0
2016-May-23 23:29N 51°01' E 002°11'0 0.0
2016-May-23 22:29N 51°01' E 002°11'0 0.0
2016-May-23 21:29N 51°01' E 002°11'0 0.0
2016-May-23 20:32N 51°01' E 002°11'0 0.0
2016-May-23 19:29N 51°01' E 002°11'0 0.0
2016-May-23 18:29N 51°01' E 002°11'0 0.0
2016-May-23 14:32N 51°01' E 002°11'0 0.0
2016-May-23 13:17N 51°01' E 002°11'0 0.0
2016-May-23 12:29N 51°01' E 002°11'0 0.0
2016-May-23 11:23N 51°01' E 002°11'0 0.0
2016-May-23 10:26N 51°01' E 002°11'0 0.0
2016-May-23 09:29N 51°01' E 002°11'0 0.0
2016-May-23 08:29N 51°01' E 002°11'0 0.0
2016-May-23 07:26N 51°01' E 002°11'0 0.0
2016-May-23 06:26N 51°01' E 002°11'0 0.0
2016-May-23 05:32N 51°01' E 002°11'0 0.0
2016-May-23 04:32N 51°01' E 002°11'0 0.0
2016-May-23 03:26N 51°01' E 002°11'4 4.9
2016-May-23 02:33N 51°03' E 002°05'10 9.9
2016-May-23 01:33N 51°02' E 001°50'10 9.5
2016-May-23 00:33N 50°59' E 001°35'5518.2
2016-May-22 21:33N 50°23' E 000°30'2020.5
2016-May-22 20:33N 50°18' W 000°01'2020.2
2016-May-22 19:33N 50°12' W 000°31'2020.0
2016-May-22 18:33N 50°07' W 001°01'1918.9
2016-May-22 17:33N 50°03' W 001°30'5115.2
2016-May-22 14:11N 49°49' W 002°47'1514.6
2016-May-22 13:10N 49°46' W 003°09'915.0
2016-May-22 12:33N 49°43' W 003°23'1515.2
2016-May-22 11:33N 49°39' W 003°45'  

Dump ship's entire track history